Time;durP1;ratioP1;P1;durP2;ratioP2;P2;SDS_P1;SDS_P2;PMS_P1;PMS_P2;Temp;Humidity;BMP_temperature;BMP_pressure;BME280_temperature;BME280_humidity;BME280_pressure;Samples;Min_cycle;Max_cycle;Signal;HPM_P1;HPM_P2
2022/03/02 00:01:29;;;;;;;8.73;7.83;;;;;;;;;;5074118;28;20208;-80
2022/03/02 00:03:57;;;;;;;6.60;5.60;;;;;;;;;;5074436;28;20673;-80
2022/03/02 00:06:25;;;;;;;4.83;4.37;;;;;;;;;;5074475;28;20193;-80
2022/03/02 00:08:52;;;;;;;13.57;8.43;;;;;;;;;;5074552;28;20215;-81
2022/03/02 00:11:20;;;;;;;19.20;12.07;;;;;;;;;;5074093;28;20196;-81
2022/03/02 00:13:47;;;;;;;15.40;11.83;;;;;;;;;;5073882;28;20202;-81
2022/03/02 00:16:16;;;;;;;13.10;10.80;;;;;;;;;;5074011;28;20224;-81
2022/03/02 00:18:44;;;;;;;12.93;10.70;;;;;;;;;;5074061;28;20236;-81
2022/03/02 00:21:11;;;;;;;13.13;10.33;;;;;;;;;;5073998;28;20204;-80
2022/03/02 00:23:40;;;;;;;10.37;9.00;;;;;;;;;;5072309;28;20295;-81
2022/03/02 00:26:07;;;;;;;13.73;9.87;;;;;;;;;;5073004;28;20239;-81
2022/03/02 00:28:35;;;;;;;9.27;8.07;;;;;;;;;;5073761;28;20208;-81
2022/03/02 00:31:02;;;;;;;6.53;5.80;;;;;;;;;;5073754;28;20296;-80
2022/03/02 00:33:29;;;;;;;6.60;5.80;;;;;;;;;;5073996;28;20674;-81
2022/03/02 00:35:56;;;;;;;6.17;5.57;;;;;;;;;;5073721;28;20241;-81
2022/03/02 00:38:24;;;;;;;5.70;5.10;;;;;;;;;;5073674;28;20197;-81
2022/03/02 00:40:52;;;;;;;6.17;5.57;;;;;;;;;;5073541;28;20575;-81
2022/03/02 00:43:20;;;;;;;6.80;5.20;;;;;;;;;;5073585;28;20669;-82
2022/03/02 00:45:47;;;;;;;10.00;7.80;;;;;;;;;;5073955;28;20216;-81
2022/03/02 00:48:15;;;;;;;11.77;8.63;;;;;;;;;;5073488;28;20208;-81
2022/03/02 00:50:43;;;;;;;13.07;8.53;;;;;;;;;;5073318;28;20244;-82
2022/03/02 00:53:10;;;;;;;13.43;9.73;;;;;;;;;;5073527;28;20201;-81
2022/03/02 00:55:38;;;;;;;16.13;11.30;;;;;;;;;;5073408;28;20760;-81
2022/03/02 00:58:07;;;;;;;24.43;15.23;;;;;;;;;;5073582;28;20203;-81
2022/03/02 01:00:34;;;;;;;21.27;13.90;;;;;;;;;;5073670;28;20203;-82
2022/03/02 01:03:02;;;;;;;13.70;10.27;;;;;;;;;;5072626;28;20197;-82
2022/03/02 01:05:29;;;;;;;12.80;11.43;;;;;;;;;;5073339;28;20201;-82
2022/03/02 01:07:56;;;;;;;14.40;11.57;;;;;;;;;;5072979;28;20208;-82
2022/03/02 01:10:23;;;;;;;14.27;10.23;;;;;;;;;;5073255;28;20201;-81
2022/03/02 01:12:51;;;;;;;14.10;9.43;;;;;;;;;;5073174;28;20197;-81
2022/03/02 01:15:19;;;;;;;15.33;10.57;;;;;;;;;;5072771;28;20200;-81
2022/03/02 01:17:47;;;;;;;17.43;11.77;;;;;;;;;;5072960;28;20698;-81
2022/03/02 01:20:15;;;;;;;12.20;9.10;;;;;;;;;;5072938;28;20201;-81
2022/03/02 01:22:43;;;;;;;9.87;7.63;;;;;;;;;;5073042;28;20742;-81
2022/03/02 01:25:11;;;;;;;15.60;11.50;;;;;;;;;;5072559;28;20229;-81
2022/03/02 01:27:38;;;;;;;19.77;11.43;;;;;;;;;;5072828;28;20576;-81
2022/03/02 01:30:07;;;;;;;16.67;11.70;;;;;;;;;;5072877;28;20239;-81
2022/03/02 01:32:35;;;;;;;19.50;12.63;;;;;;;;;;5072494;28;20566;-80
2022/03/02 01:35:03;;;;;;;16.93;12.87;;;;;;;;;;5072456;28;20197;-81
2022/03/02 01:37:30;;;;;;;14.03;10.90;;;;;;;;;;5072855;28;20307;-81
2022/03/02 01:39:58;;;;;;;18.53;11.93;;;;;;;;;;5072880;28;20239;-82
2022/03/02 01:42:25;;;;;;;12.40;8.90;;;;;;;;;;5072192;28;20193;-81
2022/03/02 01:44:52;;;;;;;13.70;8.93;;;;;;;;;;5072849;28;20258;-81
2022/03/02 01:47:19;;;;;;;7.93;7.10;;;;;;;;;;5072291;28;20200;-81
2022/03/02 01:49:48;;;;;;;6.83;6.10;;;;;;;;;;5072434;28;20204;-81
2022/03/02 01:52:15;;;;;;;9.20;6.30;;;;;;;;;;5072467;28;20296;-81
2022/03/02 01:54:43;;;;;;;6.73;6.13;;;;;;;;;;5072579;28;20219;-81
2022/03/02 01:57:10;;;;;;;8.60;6.97;;;;;;;;;;5072260;28;20232;-81
2022/03/02 01:59:38;;;;;;;7.93;5.87;;;;;;;;;;5072235;28;20208;-81
2022/03/02 02:02:05;;;;;;;8.47;6.07;;;;;;;;;;5071808;28;20197;-81
2022/03/02 02:04:33;;;;;;;7.37;6.63;;;;;;;;;;5072481;28;20201;-81
2022/03/02 02:07:01;;;;;;;6.27;5.63;;;;;;;;;;5071904;28;20193;-81
2022/03/02 02:09:29;;;;;;;7.77;5.70;;;;;;;;;;5072474;28;20208;-81
2022/03/02 02:11:56;;;;;;;7.30;5.70;;;;;;;;;;5071769;28;20196;-81
2022/03/02 02:14:23;;;;;;;6.17;5.40;;;;;;;;;;5071386;28;20200;-81
2022/03/02 02:16:50;;;;;;;5.70;4.90;;;;;;;;;;5071714;28;20260;-81
2022/03/02 02:19:18;;;;;;;6.03;5.43;;;;;;;;;;5072122;28;20205;-81
2022/03/02 02:21:48;;;;;;;5.77;5.17;;;;;;;;;;5071580;28;20193;-81
2022/03/02 02:24:16;;;;;;;6.23;4.97;;;;;;;;;;5072363;28;20617;-82
2022/03/02 02:26:43;;;;;;;6.23;5.60;;;;;;;;;;5071625;28;20272;-81
2022/03/02 02:29:11;;;;;;;7.57;5.87;;;;;;;;;;5072144;28;20197;-81
2022/03/02 02:31:38;;;;;;;8.23;5.87;;;;;;;;;;5071851;28;20216;-81
2022/03/02 02:34:05;;;;;;;7.70;6.17;;;;;;;;;;5072009;28;20670;-81
2022/03/02 02:36:32;;;;;;;6.90;6.27;;;;;;;;;;5071391;28;20225;-81
2022/03/02 02:39:01;;;;;;;7.27;6.43;;;;;;;;;;5071759;28;20516;-81
2022/03/02 02:41:28;;;;;;;6.93;6.23;;;;;;;;;;5071807;28;20200;-81
2022/03/02 02:43:55;;;;;;;9.40;7.73;;;;;;;;;;5072027;28;20597;-81
2022/03/02 02:46:23;;;;;;;11.30;8.43;;;;;;;;;;5071562;28;20279;-81
2022/03/02 02:48:50;;;;;;;8.93;6.83;;;;;;;;;;5071736;28;20201;-81
2022/03/02 02:51:17;;;;;;;17.50;8.20;;;;;;;;;;5071980;28;20219;-81
2022/03/02 02:53:45;;;;;;;8.70;7.73;;;;;;;;;;5071687;28;20201;-81
2022/03/02 02:56:13;;;;;;;8.60;7.40;;;;;;;;;;5071240;28;20201;-81
2022/03/02 02:58:41;;;;;;;8.37;7.57;;;;;;;;;;5071584;28;20221;-82
2022/03/02 03:01:08;;;;;;;9.93;8.57;;;;;;;;;;5071595;28;20326;-81
2022/03/02 03:03:35;;;;;;;11.93;7.73;;;;;;;;;;5071411;28;20201;-81
2022/03/02 03:06:04;;;;;;;21.80;13.33;;;;;;;;;;5071215;28;20205;-81
2022/03/02 03:08:31;;;;;;;41.20;24.67;;;;;;;;;;5071656;28;20197;-82
2022/03/02 03:10:58;;;;;;;37.40;23.20;;;;;;;;;;5071595;28;20685;-82
2022/03/02 03:13:27;;;;;;;16.93;11.87;;;;;;;;;;5071271;28;20201;-82
2022/03/02 03:15:54;;;;;;;12.60;9.47;;;;;;;;;;5071275;28;20197;-81
2022/03/02 03:18:21;;;;;;;11.00;8.83;;;;;;;;;;5071260;28;20223;-81
2022/03/02 03:20:49;;;;;;;11.57;9.57;;;;;;;;;;5071397;28;20197;-81
2022/03/02 03:23:16;;;;;;;7.97;7.17;;;;;;;;;;5071119;28;20201;-81
2022/03/02 03:25:43;;;;;;;9.63;8.27;;;;;;;;;;5072381;28;20237;-81
2022/03/02 03:28:10;;;;;;;11.00;8.33;;;;;;;;;;5074586;28;20189;-81
2022/03/02 03:30:39;;;;;;;8.93;7.43;;;;;;;;;;5075087;28;20204;-81
2022/03/02 03:33:06;;;;;;;9.70;7.83;;;;;;;;;;5074786;28;20199;-81
2022/03/02 03:35:34;;;;;;;11.13;8.53;;;;;;;;;;5074971;28;20201;-81
2022/03/02 03:38:01;;;;;;;10.20;8.37;;;;;;;;;;5074544;28;20232;-81
2022/03/02 03:40:28;;;;;;;12.23;8.87;;;;;;;;;;5074976;28;20709;-81
2022/03/02 03:42:56;;;;;;;34.43;23.07;;;;;;;;;;5075318;28;20609;-81
2022/03/02 03:45:24;;;;;;;24.43;14.63;;;;;;;;;;5074619;28;20193;-81
2022/03/02 03:47:53;;;;;;;14.90;10.73;;;;;;;;;;5074608;28;20197;-82
2022/03/02 03:50:20;;;;;;;11.13;8.90;;;;;;;;;;5075222;28;20205;-81
2022/03/02 03:52:48;;;;;;;11.47;8.23;;;;;;;;;;5074811;28;20204;-81
2022/03/02 03:55:16;;;;;;;17.67;13.10;;;;;;;;;;5074453;28;20204;-81
2022/03/02 03:57:43;;;;;;;18.07;13.70;;;;;;;;;;5074616;28;20312;-81
2022/03/02 04:00:14;;;;;;;17.07;11.63;;;;;;;;;;5074572;28;20291;-81
2022/03/02 04:02:41;;;;;;;12.43;9.83;;;;;;;;;;5074575;28;20205;-81
2022/03/02 04:05:10;;;;;;;11.03;8.80;;;;;;;;;;5062484;28;20202;-82
2022/03/02 04:07:38;;;;;;;10.70;8.30;;;;;;;;;;5054353;28;20193;-81
2022/03/02 04:10:06;;;;;;;9.90;7.60;;;;;;;;;;5057364;28;20221;-81
2022/03/02 04:12:34;;;;;;;8.17;6.97;;;;;;;;;;5074174;28;20193;-81
2022/03/02 04:15:01;;;;;;;8.63;7.70;;;;;;;;;;5073805;28;20189;-82
2022/03/02 04:17:28;;;;;;;8.10;7.27;;;;;;;;;;5074485;28;20234;-83
2022/03/02 04:19:56;;;;;;;9.27;7.50;;;;;;;;;;5072404;28;20201;-81
2022/03/02 04:22:24;;;;;;;9.53;7.17;;;;;;;;;;5073156;28;20243;-82
2022/03/02 04:24:51;;;;;;;10.27;8.87;;;;;;;;;;5072847;28;20200;-81
2022/03/02 04:27:19;;;;;;;9.90;7.60;;;;;;;;;;5073514;28;20582;-81
2022/03/02 04:29:46;;;;;;;9.07;7.50;;;;;;;;;;5073360;28;20196;-81
2022/03/02 04:32:13;;;;;;;9.73;7.90;;;;;;;;;;5072542;28;20198;-80
2022/03/02 04:34:40;;;;;;;10.60;8.40;;;;;;;;;;5072893;28;20292;-81
2022/03/02 04:37:08;;;;;;;9.67;8.20;;;;;;;;;;5071962;28;20316;-81
2022/03/02 04:39:36;;;;;;;10.33;9.13;;;;;;;;;;5072681;28;20201;-82
2022/03/02 04:42:04;;;;;;;9.50;8.00;;;;;;;;;;5072846;28;20207;-82
2022/03/02 04:44:32;;;;;;;8.83;7.53;;;;;;;;;;5072448;28;20201;-81
2022/03/02 04:46:59;;;;;;;10.20;7.57;;;;;;;;;;5073044;28;20197;-81
2022/03/02 04:49:26;;;;;;;8.63;7.73;;;;;;;;;;5072865;28;20688;-81
2022/03/02 04:51:53;;;;;;;9.60;7.83;;;;;;;;;;5072614;28;20554;-83
2022/03/02 04:57:07;;;;;;;11.97;9.80;;;;;;;;;;5072700;28;20338;-82
2022/03/02 04:59:34;;;;;;;10.97;8.87;;;;;;;;;;5072675;28;20197;-82
2022/03/02 05:02:02;;;;;;;8.57;7.23;;;;;;;;;;5072812;28;20193;-84
2022/03/02 05:04:29;;;;;;;9.57;7.60;;;;;;;;;;5072674;28;20229;-83
2022/03/02 05:06:56;;;;;;;8.03;7.17;;;;;;;;;;5072910;28;20215;-82
2022/03/02 05:09:23;;;;;;;9.67;7.63;;;;;;;;;;5072387;28;20262;-82
2022/03/02 05:11:51;;;;;;;9.93;7.53;;;;;;;;;;5072021;28;20197;-82
2022/03/02 05:14:19;;;;;;;9.40;8.37;;;;;;;;;;5072599;28;20298;-82
2022/03/02 05:16:46;;;;;;;27.63;16.03;;;;;;;;;;5072781;28;20283;-82
2022/03/02 05:19:14;;;;;;;24.57;20.07;;;;;;;;;;5072230;28;20217;-82
2022/03/02 05:21:41;;;;;;;27.27;23.20;;;;;;;;;;5072236;28;20276;-83
2022/03/02 05:24:08;;;;;;;21.33;16.90;;;;;;;;;;5071644;28;20197;-80
2022/03/02 05:26:35;;;;;;;18.80;16.80;;;;;;;;;;5087500;28;20239;-80
2022/03/02 05:29:03;;;;;;;25.47;18.90;;;;;;;;;;5092652;28;20604;-81
2022/03/02 05:31:32;;;;;;;24.90;18.60;;;;;;;;;;5092188;28;20196;-82
2022/03/02 05:33:59;;;;;;;41.83;25.47;;;;;;;;;;5092431;28;20205;-80
2022/03/02 05:36:27;;;;;;;63.67;37.87;;;;;;;;;;5093063;28;20323;-81
2022/03/02 05:38:55;;;;;;;50.60;34.77;;;;;;;;;;5092936;28;20216;-81
2022/03/02 05:41:22;;;;;;;30.40;25.20;;;;;;;;;;5092784;28;20201;-81
2022/03/02 05:43:50;;;;;;;29.20;22.10;;;;;;;;;;5092857;28;20565;-82
2022/03/02 05:46:17;;;;;;;34.30;25.77;;;;;;;;;;5092863;28;20192;-82
2022/03/02 05:48:46;;;;;;;28.70;21.33;;;;;;;;;;5092131;28;20295;-82
2022/03/02 05:51:13;;;;;;;28.73;20.20;;;;;;;;;;5092670;28;20196;-81
2022/03/02 05:53:40;;;;;;;27.27;20.80;;;;;;;;;;5092505;28;20227;-82
2022/03/02 05:56:08;;;;;;;34.90;25.83;;;;;;;;;;5092721;28;20228;-81
2022/03/02 05:58:35;;;;;;;23.47;18.80;;;;;;;;;;5092588;28;20242;-81
2022/03/02 06:01:02;;;;;;;19.57;15.67;;;;;;;;;;5092668;28;20287;-82
2022/03/02 06:03:31;;;;;;;20.60;14.80;;;;;;;;;;5093090;28;20218;-82
2022/03/02 06:06:00;;;;;;;14.47;12.60;;;;;;;;;;5092962;28;20570;-82
2022/03/02 06:08:27;;;;;;;15.03;13.13;;;;;;;;;;5092540;28;20256;-81
2022/03/02 06:10:55;;;;;;;25.10;17.90;;;;;;;;;;5092596;28;20203;-82
2022/03/02 06:13:23;;;;;;;20.43;14.70;;;;;;;;;;5092469;28;20243;-82
2022/03/02 06:15:51;;;;;;;15.63;12.60;;;;;;;;;;5092638;28;20268;-82
2022/03/02 06:18:18;;;;;;;13.20;10.93;;;;;;;;;;5092762;28;20293;-81
2022/03/02 06:20:51;;;;;;;14.07;11.73;;;;;;;;;;5092840;28;20297;-81
2022/03/02 06:23:20;;;;;;;13.93;11.80;;;;;;;;;;5092625;28;20634;-81
2022/03/02 06:25:48;;;;;;;15.00;12.97;;;;;;;;;;5092103;28;20271;-82
2022/03/02 06:28:15;;;;;;;25.23;13.97;;;;;;;;;;5092544;28;20579;-81
2022/03/02 06:30:42;;;;;;;23.40;15.27;;;;;;;;;;5092403;28;20199;-82
2022/03/02 06:33:10;;;;;;;21.90;18.17;;;;;;;;;;5092407;28;20676;-81
2022/03/02 06:35:38;;;;;;;25.47;18.47;;;;;;;;;;5092209;28;20198;-82
2022/03/02 06:38:05;;;;;;;30.30;25.50;;;;;;;;;;5091924;28;20696;-81
2022/03/02 06:40:34;;;;;;;30.40;23.77;;;;;;;;;;5092758;28;20222;-82
2022/03/02 06:43:06;;;;;;;20.00;15.87;;;;;;;;;;5092363;28;20273;-81
2022/03/02 06:45:48;;;;;;;18.40;15.10;;;;;;;;;;5092271;28;20271;-81
2022/03/02 06:48:20;;;;;;;17.50;13.47;;;;;;;;;;5092042;28;20187;-82
2022/03/02 06:50:52;;;;;;;27.40;20.30;;;;;;;;;;5092274;28;20189;-81
2022/03/02 06:53:20;;;;;;;19.83;16.47;;;;;;;;;;5091610;28;20661;-81
2022/03/02 06:55:49;;;;;;;12.37;11.07;;;;;;;;;;5092058;28;20196;-81
2022/03/02 06:58:19;;;;;;;10.40;9.00;;;;;;;;;;5091733;28;20342;-81
2022/03/02 07:00:52;;;;;;;9.93;8.60;;;;;;;;;;5093357;28;20192;-82
2022/03/02 07:03:20;;;;;;;11.17;9.70;;;;;;;;;;5095788;28;20653;-81
2022/03/02 07:05:48;;;;;;;15.60;11.93;;;;;;;;;;5096410;28;20192;-82
2022/03/02 07:08:17;;;;;;;17.07;12.60;;;;;;;;;;5096146;28;20578;-81
2022/03/02 07:10:44;;;;;;;35.50;22.03;;;;;;;;;;5095983;28;20196;-82
2022/03/02 07:13:13;;;;;;;25.73;18.43;;;;;;;;;;5095720;28;20210;-80
2022/03/02 07:15:40;;;;;;;28.83;19.87;;;;;;;;;;5095833;28;20295;-81
2022/03/02 07:18:07;;;;;;;61.70;37.27;;;;;;;;;;5095609;28;20303;-82
2022/03/02 07:20:38;;;;;;;56.00;34.30;;;;;;;;;;5096364;28;20222;-83
2022/03/02 07:23:08;;;;;;;19.63;14.03;;;;;;;;;;5095574;28;20236;-81
2022/03/02 07:25:39;;;;;;;17.47;15.03;;;;;;;;;;5095918;28;20228;-82
2022/03/02 07:28:10;;;;;;;46.90;31.73;;;;;;;;;;5095823;28;20203;-83
2022/03/02 07:30:39;;;;;;;50.93;36.53;;;;;;;;;;5095649;28;20271;-83
2022/03/02 07:33:08;;;;;;;54.57;34.10;;;;;;;;;;5095429;28;20283;-83
2022/03/02 07:35:37;;;;;;;21.73;16.40;;;;;;;;;;5094344;28;20231;-83
2022/03/02 07:38:05;;;;;;;17.20;13.93;;;;;;;;;;5094332;28;20203;-82
2022/03/02 07:40:32;;;;;;;16.83;14.17;;;;;;;;;;5095591;28;20192;-83
2022/03/02 07:43:00;;;;;;;16.43;14.47;;;;;;;;;;5095471;28;20188;-82
2022/03/02 07:45:27;;;;;;;12.47;11.30;;;;;;;;;;5095846;28;20237;-83
2022/03/02 07:47:57;;;;;;;10.57;9.43;;;;;;;;;;5095244;28;20291;-83
2022/03/02 07:50:24;;;;;;;10.77;9.67;;;;;;;;;;5095079;28;20201;-82
2022/03/02 07:52:53;;;;;;;9.13;8.23;;;;;;;;;;5095430;28;20286;-83
2022/03/02 07:55:21;;;;;;;11.80;9.27;;;;;;;;;;5095251;28;20206;-81
2022/03/02 07:57:52;;;;;;;17.10;11.77;;;;;;;;;;5095282;28;20292;-82
2022/03/02 08:00:20;;;;;;;11.60;9.67;;;;;;;;;;5096211;28;20325;-82
2022/03/02 08:02:48;;;;;;;10.23;9.17;;;;;;;;;;5095436;28;20199;-83
2022/03/02 08:05:17;;;;;;;11.30;9.93;;;;;;;;;;5095434;28;20223;-82
2022/03/02 08:07:44;;;;;;;13.07;10.87;;;;;;;;;;5095089;28;20192;-82
2022/03/02 08:10:15;;;;;;;8.63;7.83;;;;;;;;;;5094729;28;20207;-82
2022/03/02 08:12:43;;;;;;;13.70;9.90;;;;;;;;;;5093620;28;20200;-82
2022/03/02 08:15:11;;;;;;;10.73;9.63;;;;;;;;;;5094851;28;20195;-81
2022/03/02 08:17:38;;;;;;;11.53;8.63;;;;;;;;;;5094646;28;20243;-83
2022/03/02 08:20:07;;;;;;;10.67;7.90;;;;;;;;;;5094892;28;20303;-83
2022/03/02 08:22:37;;;;;;;8.07;6.80;;;;;;;;;;5094927;28;20275;-84
2022/03/02 08:25:08;;;;;;;13.83;12.37;;;;;;;;;;5094822;28;20293;-82
2022/03/02 08:27:36;;;;;;;10.90;9.90;;;;;;;;;;5095083;28;20603;-84
2022/03/02 08:30:06;;;;;;;9.83;8.87;;;;;;;;;;5095509;28;20201;-84
2022/03/02 08:32:37;;;;;;;9.07;8.27;;;;;;;;;;5094248;28;20242;-81
2022/03/02 08:35:06;;;;;;;7.33;6.67;;;;;;;;;;5095752;28;20184;-81
2022/03/02 08:37:33;;;;;;;8.33;6.30;;;;;;;;;;5105841;28;20196;-82
2022/03/02 08:40:02;;;;;;;8.07;6.80;;;;;;;;;;5104738;28;20251;-82
2022/03/02 08:42:29;;;;;;;7.90;7.17;;;;;;;;;;5107055;28;20224;-82
2022/03/02 08:44:57;;;;;;;7.83;6.27;;;;;;;;;;5106720;28;20279;-81
2022/03/02 08:47:24;;;;;;;7.13;6.43;;;;;;;;;;5094368;28;20291;-81
2022/03/02 08:49:54;;;;;;;9.43;8.53;;;;;;;;;;5093985;28;20192;-83
2022/03/02 08:52:26;;;;;;;8.47;7.70;;;;;;;;;;5094141;28;20282;-82
2022/03/02 08:54:55;;;;;;;9.33;6.80;;;;;;;;;;5094624;28;20188;-82
2022/03/02 08:57:24;;;;;;;9.20;8.40;;;;;;;;;;5094012;28;20196;-83
2022/03/02 08:59:53;;;;;;;6.43;5.73;;;;;;;;;;5093781;28;20331;-82
2022/03/02 09:02:24;;;;;;;6.60;4.83;;;;;;;;;;5093909;28;20207;-82
2022/03/02 09:04:51;;;;;;;6.53;5.83;;;;;;;;;;5094023;28;20189;-82
2022/03/02 09:07:19;;;;;;;9.37;8.57;;;;;;;;;;5093653;28;20748;-83
2022/03/02 09:09:47;;;;;;;7.87;6.17;;;;;;;;;;5093535;28;20188;-81
2022/03/02 09:12:15;;;;;;;6.90;6.30;;;;;;;;;;5093085;28;20287;-82
2022/03/02 09:14:44;;;;;;;6.77;6.07;;;;;;;;;;5093606;28;20196;-81
2022/03/02 09:17:12;;;;;;;7.70;6.87;;;;;;;;;;5093234;28;20278;-82
2022/03/02 09:19:40;;;;;;;6.23;5.63;;;;;;;;;;5094029;28;20258;-82
2022/03/02 09:22:07;;;;;;;5.80;5.30;;;;;;;;;;5093213;28;20196;-82
2022/03/02 09:24:35;;;;;;;5.87;5.37;;;;;;;;;;5092925;28;20208;-82
2022/03/02 09:27:03;;;;;;;6.10;5.47;;;;;;;;;;5092939;28;20243;-82
2022/03/02 09:29:32;;;;;;;6.67;6.13;;;;;;;;;;5093577;28;20214;-82
2022/03/02 09:32:04;;;;;;;5.90;5.40;;;;;;;;;;5092921;28;20212;-82
2022/03/02 09:34:31;;;;;;;6.13;5.60;;;;;;;;;;5093479;28;20185;-82
2022/03/02 09:36:59;;;;;;;7.23;6.53;;;;;;;;;;5092843;28;20196;-82
2022/03/02 09:39:28;;;;;;;7.67;6.73;;;;;;;;;;5092976;28;20220;-83
2022/03/02 09:42:00;;;;;;;7.03;6.33;;;;;;;;;;5093123;28;20203;-80
2022/03/02 09:44:33;;;;;;;7.50;6.77;;;;;;;;;;5093085;28;20662;-81
2022/03/02 09:47:03;;;;;;;7.73;6.93;;;;;;;;;;5092733;28;20633;-80
2022/03/02 09:49:31;;;;;;;8.67;7.10;;;;;;;;;;5092590;28;20249;-80
2022/03/02 09:52:04;;;;;;;13.60;10.57;;;;;;;;;;5093030;28;20565;-81
2022/03/02 09:54:36;;;;;;;13.97;10.13;;;;;;;;;;5092781;28;20645;-81
2022/03/02 09:57:06;;;;;;;10.23;9.13;;;;;;;;;;5092749;28;20576;-82
2022/03/02 09:59:36;;;;;;;9.50;8.50;;;;;;;;;;5092665;28;20256;-81
2022/03/02 10:02:07;;;;;;;9.80;7.80;;;;;;;;;;5092667;28;20204;-81
2022/03/02 10:04:35;;;;;;;8.73;8.00;;;;;;;;;;5092713;28;20203;-82
2022/03/02 10:09:58;;;;;;;8.47;7.60;;;;;;;;;;5092979;28;20226;-81
2022/03/02 10:12:26;;;;;;;8.10;5.57;;;;;;;;;;5092606;28;20181;-81
2022/03/02 10:14:54;;;;;;;6.50;5.87;;;;;;;;;;5092454;28;20240;-82
2022/03/02 10:17:24;;;;;;;8.53;6.13;;;;;;;;;;5092266;28;20689;-82
2022/03/02 10:19:55;;;;;;;6.97;6.27;;;;;;;;;;5092118;28;20800;-82
2022/03/02 10:22:46;;;;;;;6.73;6.03;;;;;;;;;;5092278;28;20188;-82
2022/03/02 10:25:17;;;;;;;7.70;6.60;;;;;;;;;;5089879;28;20271;-81
2022/03/02 10:27:56;;;;;;;7.33;6.57;;;;;;;;;;5091936;28;20243;-81
2022/03/02 10:30:23;;;;;;;7.27;6.57;;;;;;;;;;5092178;28;20188;-82
2022/03/02 10:32:54;;;;;;;6.20;5.60;;;;;;;;;;5092050;28;20196;-82
2022/03/02 10:35:23;;;;;;;7.97;6.70;;;;;;;;;;5091638;28;20194;-83
2022/03/02 10:37:54;;;;;;;7.10;6.00;;;;;;;;;;5091776;28;20196;-82
2022/03/02 10:40:24;;;;;;;7.07;6.37;;;;;;;;;;5092159;28;20208;-82
2022/03/02 10:42:55;;;;;;;6.60;6.00;;;;;;;;;;5092291;28;20223;-83
2022/03/02 10:45:24;;;;;;;7.00;6.30;;;;;;;;;;5091747;28;20184;-83
2022/03/02 10:48:04;;;;;;;7.10;6.40;;;;;;;;;;5091826;28;20291;-83
2022/03/02 10:50:34;;;;;;;8.33;6.13;;;;;;;;;;5091887;28;20279;-82
2022/03/02 10:53:03;;;;;;;6.63;5.93;;;;;;;;;;5091866;28;20196;-82
2022/03/02 10:55:32;;;;;;;6.73;5.60;;;;;;;;;;5091765;28;20236;-82
2022/03/02 10:58:02;;;;;;;8.27;6.63;;;;;;;;;;5092208;28;20325;-82
2022/03/02 11:00:30;;;;;;;7.70;6.90;;;;;;;;;;5092029;28;20208;-83
2022/03/02 11:02:59;;;;;;;10.17;8.53;;;;;;;;;;5092025;28;20192;-83
2022/03/02 11:05:30;;;;;;;8.53;7.70;;;;;;;;;;5091719;28;20200;-83
2022/03/02 11:07:58;;;;;;;5.63;5.07;;;;;;;;;;5092210;28;20659;-82
2022/03/02 11:10:31;;;;;;;6.13;5.50;;;;;;;;;;5092006;28;20285;-82
2022/03/02 11:13:00;;;;;;;5.67;5.07;;;;;;;;;;5091794;28;20192;-82
2022/03/02 11:15:28;;;;;;;7.37;6.67;;;;;;;;;;5091671;28;20193;-83
2022/03/02 11:18:00;;;;;;;4.87;4.47;;;;;;;;;;5092073;28;20723;-83
2022/03/02 11:20:30;;;;;;;4.93;4.43;;;;;;;;;;5091993;28;20204;-83
2022/03/02 11:23:00;;;;;;;4.53;4.13;;;;;;;;;;5091611;28;20184;-83
2022/03/02 11:25:47;;;;;;;4.30;4.00;;;;;;;;;;5091362;28;20281;-83
2022/03/02 11:28:19;;;;;;;4.77;3.87;;;;;;;;;;5091583;28;20245;-83
2022/03/02 11:30:48;;;;;;;4.73;4.33;;;;;;;;;;5091800;28;20271;-82
2022/03/02 11:33:16;;;;;;;4.30;3.90;;;;;;;;;;5091491;28;20258;-83
2022/03/02 11:35:47;;;;;;;4.50;4.10;;;;;;;;;;5091456;28;20257;-82
2022/03/02 11:38:20;;;;;;;7.93;6.70;;;;;;;;;;5091438;28;20204;-82
2022/03/02 11:40:49;;;;;;;9.00;7.67;;;;;;;;;;5091569;28;20645;-82
2022/03/02 11:43:19;;;;;;;9.17;6.73;;;;;;;;;;5091345;28;20638;-82
2022/03/02 11:45:47;;;;;;;14.03;10.07;;;;;;;;;;5091677;28;20246;-82
2022/03/02 11:48:16;;;;;;;6.70;6.00;;;;;;;;;;5094781;28;20207;-82
2022/03/02 11:51:04;;;;;;;6.90;6.10;;;;;;;;;;5095288;28;20245;-82
2022/03/02 11:53:33;;;;;;;6.97;5.70;;;;;;;;;;5095339;28;20265;-82
2022/03/02 11:56:02;;;;;;;6.23;5.63;;;;;;;;;;5095200;28;20203;-83
2022/03/02 11:58:30;;;;;;;3.90;3.50;;;;;;;;;;5095452;28;20196;-83
2022/03/02 12:01:07;;;;;;;14.67;9.80;;;;;;;;;;5095080;28;20220;-83
2022/03/02 12:03:37;;;;;;;5.63;5.07;;;;;;;;;;5095346;28;20180;-83
2022/03/02 12:06:10;;;;;;;5.33;4.83;;;;;;;;;;5095614;28;20613;-83
2022/03/02 12:08:37;;;;;;;3.93;3.63;;;;;;;;;;5095369;28;20617;-83
2022/03/02 12:11:12;;;;;;;3.43;3.13;;;;;;;;;;5094734;28;20201;-83
2022/03/02 12:13:39;;;;;;;3.80;3.50;;;;;;;;;;5095081;28;20215;-83
2022/03/02 12:16:07;;;;;;;4.47;4.07;;;;;;;;;;5095042;28;20299;-83
2022/03/02 12:18:39;;;;;;;4.80;4.37;;;;;;;;;;5094786;28;20203;-83
2022/03/02 12:21:17;;;;;;;5.07;4.10;;;;;;;;;;5094379;28;20200;-83
2022/03/02 12:23:53;;;;;;;3.50;3.10;;;;;;;;;;5094536;28;20275;-83
2022/03/02 12:26:20;;;;;;;7.07;4.13;;;;;;;;;;5094389;28;20232;-82
2022/03/02 12:28:55;;;;;;;7.10;5.20;;;;;;;;;;5094082;28;20202;-83
2022/03/02 12:31:29;;;;;;;5.47;4.80;;;;;;;;;;5094235;28;20180;-83
2022/03/02 12:34:01;;;;;;;5.93;4.97;;;;;;;;;;5094300;28;20237;-82
2022/03/02 12:36:30;;;;;;;6.07;4.87;;;;;;;;;;5094465;28;20188;-82
2022/03/02 12:38:57;;;;;;;9.07;5.30;;;;;;;;;;5094045;28;20208;-82
2022/03/02 12:41:25;;;;;;;7.63;5.63;;;;;;;;;;5094052;28;20236;-82
2022/03/02 12:43:52;;;;;;;7.97;6.57;;;;;;;;;;5094616;28;20279;-82
2022/03/02 12:46:20;;;;;;;5.57;5.03;;;;;;;;;;5094270;28;20279;-83
2022/03/02 12:48:48;;;;;;;4.80;4.40;;;;;;;;;;5094429;28;20230;-82
2022/03/02 12:51:17;;;;;;;5.17;4.30;;;;;;;;;;5093736;28;20193;-83
2022/03/02 12:53:47;;;;;;;5.50;4.80;;;;;;;;;;5093880;28;20261;-82
2022/03/02 12:56:15;;;;;;;6.60;5.93;;;;;;;;;;5093781;28;20207;-83
2022/03/02 12:58:44;;;;;;;6.53;5.93;;;;;;;;;;5093269;28;20200;-83
2022/03/02 13:01:12;;;;;;;8.43;6.10;;;;;;;;;;5093445;28;20319;-82
2022/03/02 13:03:45;;;;;;;7.37;4.70;;;;;;;;;;5093993;28;20204;-83
2022/03/02 13:06:14;;;;;;;4.33;3.93;;;;;;;;;;5093802;28;20180;-83
2022/03/02 13:08:48;;;;;;;4.50;4.20;;;;;;;;;;5093570;28;20664;-82
2022/03/02 13:11:25;;;;;;;5.37;4.83;;;;;;;;;;5093709;28;20582;-82
2022/03/02 13:13:52;;;;;;;8.83;6.20;;;;;;;;;;5093595;28;20207;-82
2022/03/02 13:16:21;;;;;;;5.83;5.13;;;;;;;;;;5093405;28;20205;-82
2022/03/02 13:18:49;;;;;;;6.23;5.63;;;;;;;;;;5093453;28;20200;-83
2022/03/02 13:21:19;;;;;;;6.07;5.30;;;;;;;;;;5093417;28;20307;-82
2022/03/02 13:24:21;;;;;;;4.37;3.93;;;;;;;;;;5093470;28;20187;-82
2022/03/02 13:27:12;;;;;;;4.50;4.10;;;;;;;;;;5011172;28;20325;-82
2022/03/02 13:30:07;;;;;;;5.13;4.63;;;;;;;;;;5011094;28;20266;-82
2022/03/02 13:33:03;;;;;;;4.47;4.07;;;;;;;;;;5009702;28;20231;-83
2022/03/02 13:35:31;;;;;;;4.27;3.83;;;;;;;;;;5011256;28;20191;-83
2022/03/02 13:38:12;;;;;;;4.10;3.80;;;;;;;;;;5010968;28;20218;-82
2022/03/02 13:40:49;;;;;;;4.80;4.30;;;;;;;;;;5010933;28;20207;-83
2022/03/02 13:43:33;;;;;;;4.07;3.67;;;;;;;;;;5010881;28;20188;-83
2022/03/02 13:46:20;;;;;;;3.40;3.10;;;;;;;;;;5011236;28;20195;-82
2022/03/02 13:48:57;;;;;;;5.47;3.97;;;;;;;;;;5010960;28;20199;-83
2022/03/02 13:51:26;;;;;;;3.77;3.47;;;;;;;;;;5010865;28;20557;-82
2022/03/02 13:54:05;;;;;;;3.90;3.60;;;;;;;;;;5010910;28;20200;-82
2022/03/02 13:56:43;;;;;;;3.67;3.37;;;;;;;;;;5011482;28;20218;-82
2022/03/02 13:59:24;;;;;;;3.90;3.60;;;;;;;;;;5092688;28;20315;-83
2022/03/02 14:01:52;;;;;;;4.10;3.70;;;;;;;;;;5092735;28;20265;-82
2022/03/02 14:04:20;;;;;;;5.00;4.50;;;;;;;;;;5092675;28;20204;-83
2022/03/02 14:06:54;;;;;;;5.20;4.70;;;;;;;;;;5092504;28;20227;-82
2022/03/02 14:09:21;;;;;;;4.20;3.90;;;;;;;;;;5092493;28;20201;-83
2022/03/02 14:11:51;;;;;;;5.03;4.17;;;;;;;;;;5091445;28;20253;-82
2022/03/02 14:14:20;;;;;;;4.33;3.93;;;;;;;;;;5092805;28;20275;-83
2022/03/02 14:16:59;;;;;;;5.60;5.10;;;;;;;;;;5092351;28;20197;-83
2022/03/02 14:19:27;;;;;;;5.40;4.90;;;;;;;;;;5092527;28;20199;-83
2022/03/02 14:22:02;;;;;;;4.83;4.43;;;;;;;;;;5091876;28;20324;-83
2022/03/02 14:24:32;;;;;;;4.73;4.23;;;;;;;;;;5092367;28;20184;-83
2022/03/02 14:27:16;;;;;;;4.70;4.27;;;;;;;;;;5092029;28;20267;-83
2022/03/02 14:29:52;;;;;;;6.83;6.23;;;;;;;;;;5092607;28;20184;-83
2022/03/02 14:32:20;;;;;;;5.77;5.27;;;;;;;;;;5091921;28;20186;-83
2022/03/02 14:34:55;;;;;;;6.17;4.37;;;;;;;;;;5092521;28;20279;-83
2022/03/02 14:37:25;;;;;;;5.00;4.50;;;;;;;;;;5092014;28;20184;-83
2022/03/02 14:40:06;;;;;;;7.63;6.83;;;;;;;;;;5092464;28;20279;-83
2022/03/02 14:42:36;;;;;;;7.60;5.83;;;;;;;;;;5091792;28;20724;-83
2022/03/02 14:45:12;;;;;;;5.83;5.33;;;;;;;;;;5092405;28;20197;-83
2022/03/02 14:47:41;;;;;;;6.53;5.90;;;;;;;;;;5091970;28;20188;-83
2022/03/02 14:50:21;;;;;;;4.63;4.23;;;;;;;;;;5091839;28;20254;-83
2022/03/02 14:52:54;;;;;;;4.90;4.40;;;;;;;;;;5091899;28;20642;-83